Time;durP1;ratioP1;P1;durP2;ratioP2;P2;SDS_P1;SDS_P2;PMS_P1;PMS_P2;Temp;Humidity;BMP_temperature;BMP_pressure;BME280_temperature;BME280_humidity;BME280_pressure;Samples;Min_cycle;Max_cycle;Signal;HPM_P1;HPM_P2
2023/01/02 00:02:17;;;;;;;6.13;2.97;;;;;12.80;100448.00;;;;10474023;28;20582;-79
2023/01/02 00:07:19;;;;;;;7.23;2.97;;;;;12.70;100451.00;;;;10482690;28;20729;-79
2023/01/02 00:12:21;;;;;;;9.43;2.87;;;;;12.50;100454.00;;;;10479981;28;20197;-81
2023/01/02 00:17:24;;;;;;;7.77;2.93;;;;;12.30;100449.00;;;;10472459;28;20209;-81
2023/01/02 00:22:26;;;;;;;10.47;3.80;;;;;12.20;100456.00;;;;10505325;28;20193;-80
2023/01/02 00:27:28;;;;;;;5.67;2.77;;;;;12.20;100451.00;;;;10473509;28;20304;-81
2023/01/02 00:32:30;;;;;;;9.77;3.07;;;;;12.10;100456.00;;;;10450512;28;20297;-81
2023/01/02 00:37:31;;;;;;;7.10;3.00;;;;;12.10;100453.00;;;;10450175;28;20214;-81
2023/01/02 00:42:33;;;;;;;10.33;2.87;;;;;12.10;100436.00;;;;10450382;28;20212;-82
2023/01/02 00:47:36;;;;;;;6.97;3.33;;;;;12.20;100435.00;;;;10467836;28;20182;-82
2023/01/02 00:52:38;;;;;;;7.70;2.70;;;;;12.20;100431.00;;;;10491492;28;20189;-81
2023/01/02 00:57:40;;;;;;;6.83;3.30;;;;;12.20;100431.00;;;;10464689;28;20237;-82
2023/01/02 01:02:42;;;;;;;6.33;2.90;;;;;12.20;100423.00;;;;10449494;28;20236;-82
2023/01/02 01:07:44;;;;;;;7.27;3.17;;;;;12.10;100416.00;;;;10450540;28;20677;-82
2023/01/02 01:12:45;;;;;;;8.17;3.23;;;;;12.10;100413.00;;;;10464675;28;20201;-82
2023/01/02 01:17:47;;;;;;;7.27;3.13;;;;;12.10;100429.00;;;;10481154;28;20198;-81
2023/01/02 01:22:49;;;;;;;6.77;3.40;;;;;12.10;100435.00;;;;10467673;28;20185;-82
2023/01/02 01:27:53;;;;;;;5.63;2.93;;;;;12.00;100427.00;;;;10431519;28;20317;-81
2023/01/02 01:32:56;;;;;;;6.30;3.07;;;;;12.00;100436.00;;;;10466078;28;20205;-81
2023/01/02 01:37:59;;;;;;;6.57;2.67;;;;;12.00;100432.00;;;;10452580;28;20288;-82
2023/01/02 01:43:01;;;;;;;8.90;3.00;;;;;12.00;100434.00;;;;10471320;28;20202;-82
2023/01/02 01:48:03;;;;;;;7.00;3.03;;;;;12.00;100439.00;;;;10431092;28;20190;-82
2023/01/02 01:53:13;;;;;;;4.67;2.60;;;;;12.00;100448.00;;;;10463812;28;20225;-82
2023/01/02 01:58:22;;;;;;;10.67;3.40;;;;;11.90;100445.00;;;;10475767;28;20626;-81
2023/01/02 02:03:27;;;;;;;5.73;2.40;;;;;11.90;100452.00;;;;10488362;28;20246;-81
2023/01/02 02:08:40;;;;;;;7.97;2.57;;;;;11.90;100450.00;;;;10485963;28;20184;-82
2023/01/02 02:13:42;;;;;;;7.97;3.10;;;;;11.90;100462.00;;;;10494610;28;20199;-83
2023/01/02 02:19:01;;;;;;;10.27;2.70;;;;;11.90;100472.00;;;;10479520;28;20283;-82
2023/01/02 02:24:18;;;;;;;5.90;2.67;;;;;11.90;100488.00;;;;10482325;28;20559;-82
2023/01/02 02:29:57;;;;;;;8.30;2.60;;;;;11.90;100485.00;;;;10490172;28;20231;-82
2023/01/02 02:35:23;;;;;;;10.67;2.80;;;;;11.90;100482.00;;;;10481362;28;20205;-82
2023/01/02 02:40:44;;;;;;;4.93;2.60;;;;;11.90;100485.00;;;;10458428;28;20216;-81
2023/01/02 02:46:01;;;;;;;9.17;2.90;;;;;11.90;100475.00;;;;10452191;28;20220;-81
2023/01/02 02:51:17;;;;;;;5.63;2.50;;;;;11.90;100458.00;;;;10477033;28;20209;-82
2023/01/02 02:56:21;;;;;;;10.20;3.33;;;;;12.00;100454.00;;;;10507219;28;20663;-81
2023/01/02 03:01:25;;;;;;;8.67;3.00;;;;;12.00;100457.00;;;;10462853;28;20190;-81
2023/01/02 03:07:00;;;;;;;7.03;2.93;;;;;12.10;100458.00;;;;10483767;28;20294;-81
2023/01/02 03:12:18;;;;;;;6.03;2.77;;;;;12.10;100465.00;;;;10477968;28;20185;-80
2023/01/02 03:17:53;;;;;;;7.13;2.50;;;;;12.20;100459.00;;;;10468657;28;20233;-80
2023/01/02 03:23:01;;;;;;;8.00;2.70;;;;;12.10;100469.00;;;;10464788;28;20678;-80
2023/01/02 03:28:06;;;;;;;3.63;2.87;;;;;12.10;100467.00;;;;10495682;28;20304;-80
2023/01/02 03:33:15;;;;;;;4.37;1.97;;;;;12.10;100478.00;;;;10468126;28;20251;-81
2023/01/02 03:38:28;;;;;;;5.03;2.37;;;;;12.10;100474.00;;;;10469405;28;20651;-80
2023/01/02 03:43:33;;;;;;;5.37;2.50;;;;;12.00;100484.00;;;;10492793;28;20246;-80
2023/01/02 03:49:09;;;;;;;7.40;2.77;;;;;12.00;100498.00;;;;10509606;28;20220;-80
2023/01/02 03:54:10;;;;;;;5.47;2.40;;;;;12.00;100503.00;;;;10475156;28;20213;-79
2023/01/02 03:59:30;;;;;;;5.17;2.60;;;;;12.00;100520.00;;;;10483871;28;20276;-81
2023/01/02 04:04:46;;;;;;;4.13;2.00;;;;;12.00;100518.00;;;;10450906;28;20209;-80
2023/01/02 04:09:53;;;;;;;3.30;2.00;;;;;11.90;100523.00;;;;10484943;28;20220;-80
2023/01/02 04:14:59;;;;;;;3.53;2.17;;;;;11.90;100519.00;;;;10460699;28;20252;-80
2023/01/02 04:20:06;;;;;;;3.93;1.90;;;;;11.90;100517.00;;;;10484383;28;20189;-81
2023/01/02 04:25:14;;;;;;;2.80;1.87;;;;;11.90;100534.00;;;;10466963;28;20213;-80
2023/01/02 04:30:16;;;;;;;8.23;2.80;;;;;11.90;100535.00;;;;10484454;28;20320;-81
2023/01/02 04:35:21;;;;;;;4.27;2.23;;;;;11.90;100549.00;;;;10449441;28;20680;-80
2023/01/02 04:40:29;;;;;;;4.43;1.90;;;;;11.90;100547.00;;;;10448756;28;20255;-81
2023/01/02 04:45:31;;;;;;;2.53;1.63;;;;;11.80;100551.00;;;;10466572;28;20196;-81
2023/01/02 04:50:33;;;;;;;2.33;1.60;;;;;11.70;100559.00;;;;10467175;28;20201;-81
2023/01/02 04:55:36;;;;;;;5.07;1.73;;;;;11.70;100570.00;;;;10480602;28;20196;-82
2023/01/02 05:00:38;;;;;;;2.33;1.40;;;;;11.70;100564.00;;;;10490111;28;20189;-82
2023/01/02 05:05:39;;;;;;;4.87;1.30;;;;;11.60;100568.00;;;;10506892;28;20199;-81
2023/01/02 05:10:41;;;;;;;3.03;1.43;;;;;11.60;100588.00;;;;10506094;28;20196;-82
2023/01/02 05:15:43;;;;;;;7.57;2.10;;;;;11.60;100602.00;;;;10461412;28;20218;-82
2023/01/02 05:20:45;;;;;;;3.97;1.57;;;;;11.60;100606.00;;;;10482905;28;20216;-83
2023/01/02 05:25:47;;;;;;;2.47;1.23;;;;;11.60;100622.00;;;;10464865;28;20214;-82
2023/01/02 05:30:49;;;;;;;5.17;1.87;;;;;11.50;100630.00;;;;10449144;28;20204;-82
2023/01/02 05:35:51;;;;;;;4.13;1.87;;;;;11.40;100633.00;;;;10448780;28;20209;-82
2023/01/02 05:41:04;;;;;;;2.73;1.30;;;;;11.30;100640.00;;;;10481452;28;20201;-81
2023/01/02 05:46:18;;;;;;;3.70;2.03;;;;;11.30;100652.00;;;;10447037;28;20198;-82
2023/01/02 05:51:20;;;;;;;3.23;1.63;;;;;11.20;100674.00;;;;10464274;28;20243;-81
2023/01/02 05:56:22;;;;;;;2.90;1.40;;;;;11.20;100701.00;;;;10471673;28;20220;-81
2023/01/02 06:01:27;;;;;;;1.83;1.73;;;;;11.00;100712.00;;;;10447354;28;20195;-81
2023/01/02 06:06:38;;;;;;;1.73;1.40;;;;;10.80;100713.00;;;;10464834;28;20177;-81
2023/01/02 06:11:40;;;;;;;2.50;1.60;;;;;10.50;100729.00;;;;10455484;28;20185;-81
2023/01/02 06:16:42;;;;;;;2.07;1.37;;;;;10.30;100730.00;;;;10488686;28;20213;-82
2023/01/02 06:21:44;;;;;;;1.20;1.10;;;;;10.20;100739.00;;;;10462654;28;20201;-80
2023/01/02 06:26:46;;;;;;;1.43;1.13;;;;;10.10;100754.00;;;;10446074;28;20304;-80
2023/01/02 06:31:48;;;;;;;1.40;1.30;;;;;10.00;100774.00;;;;10471075;28;20822;-82
2023/01/02 06:36:52;;;;;;;4.17;1.80;;;;;10.00;100786.00;;;;10447057;28;20202;-81
2023/01/02 06:41:54;;;;;;;4.87;3.17;;;;;9.90;100809.00;;;;10443360;28;20198;-80
2023/01/02 06:46:56;;;;;;;6.10;4.00;;;;;9.80;100818.00;;;;10453130;28;20293;-81
2023/01/02 06:51:58;;;;;;;6.87;4.33;;;;;9.80;100837.00;;;;10462869;28;20189;-81
2023/01/02 06:57:00;;;;;;;8.77;5.00;;;;;9.70;100846.00;;;;10492665;28;20204;-81
2023/01/02 07:02:02;;;;;;;8.87;4.93;;;;;9.70;100870.00;;;;10487803;28;20201;-81
2023/01/02 07:07:04;;;;;;;11.10;6.20;;;;;9.60;100870.00;;;;10470074;28;20198;-81
2023/01/02 07:12:06;;;;;;;11.33;6.37;;;;;9.60;100875.00;;;;10479326;28;20242;-81
2023/01/02 07:17:08;;;;;;;8.57;5.23;;;;;9.60;100882.00;;;;10495453;28;20280;-81
2023/01/02 07:22:10;;;;;;;11.10;5.33;;;;;9.60;100886.00;;;;10527944;28;20189;-81
2023/01/02 07:27:12;;;;;;;9.77;5.07;;;;;9.60;100891.00;;;;10481379;28;20249;-80
2023/01/02 07:32:14;;;;;;;10.67;5.97;;;;;9.60;100909.00;;;;10526965;28;20201;-80
2023/01/02 07:37:16;;;;;;;10.10;6.10;;;;;9.60;100910.00;;;;10502029;28;20212;-80
2023/01/02 07:42:18;;;;;;;10.40;6.37;;;;;9.60;100927.00;;;;10545262;28;20200;-80
2023/01/02 07:47:20;;;;;;;11.03;6.70;;;;;9.60;100944.00;;;;10482604;28;20288;-80
2023/01/02 07:52:22;;;;;;;11.60;6.73;;;;;9.60;100951.00;;;;10521420;28;20215;-80
2023/01/02 07:57:24;;;;;;;11.73;6.30;;;;;9.60;100958.00;;;;10494295;28;20209;-80
2023/01/02 08:02:26;;;;;;;9.73;5.70;;;;;9.60;100962.00;;;;10496875;28;20185;-80
2023/01/02 08:07:28;;;;;;;10.77;6.07;;;;;9.60;100958.00;;;;10524490;28;20655;-80
2023/01/02 08:12:29;;;;;;;9.67;5.40;;;;;9.60;100968.00;;;;10501050;28;20185;-80
2023/01/02 08:17:31;;;;;;;9.83;5.73;;;;;9.60;100983.00;;;;10521227;28;20284;-80
2023/01/02 08:22:33;;;;;;;8.50;4.97;;;;;9.60;100981.00;;;;10494363;28;20253;-80
2023/01/02 08:27:35;;;;;;;9.07;4.63;;;;;9.50;100998.00;;;;10502682;28;20316;-80
2023/01/02 08:32:37;;;;;;;9.67;5.27;;;;;9.60;100998.00;;;;10505392;28;20186;-80
2023/01/02 08:37:39;;;;;;;8.50;4.80;;;;;9.60;101010.00;;;;10494091;28;20209;-80
2023/01/02 08:42:46;;;;;;;8.23;5.07;;;;;9.70;101008.00;;;;10501220;28;20185;-80
2023/01/02 08:47:48;;;;;;;11.37;5.13;;;;;9.80;101032.00;;;;10478226;28;20682;-80
2023/01/02 08:52:50;;;;;;;8.27;4.70;;;;;9.80;101037.00;;;;10511203;28;20236;-79
2023/01/02 08:57:52;;;;;;;12.03;5.90;;;;;9.80;101056.00;;;;10524598;28;20201;-80
2023/01/02 09:02:53;;;;;;;10.60;5.07;;;;;9.80;101052.00;;;;10464717;28;20232;-79
2023/01/02 09:07:57;;;;;;;13.77;5.77;;;;;9.90;101050.00;;;;10479438;28;20189;-79
2023/01/02 09:12:58;;;;;;;7.93;5.40;;;;;10.10;101063.00;;;;10502512;28;20203;-80
2023/01/02 09:18:01;;;;;;;9.00;5.47;;;;;10.30;101064.00;;;;10504713;28;20587;-79
2023/01/02 09:23:02;;;;;;;5.87;3.53;;;;;10.30;101070.00;;;;10469235;28;20272;-80
2023/01/02 09:28:04;;;;;;;6.47;3.87;;;;;10.20;101087.00;;;;10512899;28;20216;-80
2023/01/02 09:33:07;;;;;;;4.43;3.43;;;;;10.10;101100.00;;;;10478324;28;20193;-80
2023/01/02 09:38:09;;;;;;;4.23;3.13;;;;;10.10;101113.00;;;;10503339;28;20204;-79
2023/01/02 09:43:13;;;;;;;5.40;2.83;;;;;10.30;101109.00;;;;10496143;28;20196;-80
2023/01/02 09:48:18;;;;;;;4.37;3.20;;;;;10.40;101105.00;;;;10504818;28;20220;-79
2023/01/02 09:53:19;;;;;;;4.27;3.23;;;;;10.60;101115.00;;;;10474755;28;20284;-79
2023/01/02 09:58:45;;;;;;;4.20;3.40;;;;;10.60;101129.00;;;;10494803;28;20820;-80
2023/01/02 10:04:10;;;;;;;4.03;3.13;;;;;10.70;101131.00;;;;10518634;28;20192;-80
2023/01/02 10:09:34;;;;;;;5.03;2.67;;;;;10.80;101146.00;;;;10492988;28;20193;-80
2023/01/02 10:14:48;;;;;;;5.93;2.60;;;;;10.80;101144.00;;;;10486800;28;20298;-80
2023/01/02 10:20:02;;;;;;;6.67;2.50;;;;;10.70;101164.00;;;;10523515;28;20823;-80
2023/01/02 10:25:12;;;;;;;4.93;3.30;;;;;10.80;101155.00;;;;10508413;28;20273;-80
2023/01/02 10:30:14;;;;;;;4.63;3.60;;;;;10.70;101166.00;;;;10490302;28;20223;-80
2023/01/02 10:35:52;;;;;;;6.17;3.67;;;;;10.80;101164.00;;;;10527122;28;20209;-79
2023/01/02 10:40:53;;;;;;;4.73;3.40;;;;;10.90;101157.00;;;;10505128;28;20752;-79
2023/01/02 10:45:55;;;;;;;4.33;3.40;;;;;11.00;101166.00;;;;10473742;28;20194;-79
2023/01/02 10:51:03;;;;;;;7.07;3.87;;;;;11.30;101164.00;;;;10524886;28;20255;-79
2023/01/02 10:56:17;;;;;;;5.90;3.50;;;;;11.30;101180.00;;;;10522555;28;20712;-79
2023/01/02 11:01:21;;;;;;;4.37;3.43;;;;;11.40;101173.00;;;;10485818;28;20339;-79
2023/01/02 11:06:31;;;;;;;3.60;3.03;;;;;11.50;101178.00;;;;10510835;28;21751;-79
2023/01/02 11:11:48;;;;;;;8.07;3.53;;;;;11.20;101173.00;;;;10484710;28;20200;-79
2023/01/02 11:16:50;;;;;;;4.90;3.17;;;;;11.00;101170.00;;;;10483758;28;20236;-80
2023/01/02 11:21:52;;;;;;;3.67;2.40;;;;;10.80;101167.00;;;;10468248;28;20233;-79
2023/01/02 11:26:55;;;;;;;2.70;2.00;;;;;10.80;101170.00;;;;10534217;28;20252;-79
2023/01/02 11:32:00;;;;;;;2.57;1.87;;;;;10.70;101189.00;;;;10467148;28;20263;-79
2023/01/02 11:37:12;;;;;;;3.30;2.27;;;;;10.40;101206.00;;;;10521001;28;20197;-79
2023/01/02 11:47:46;;;;;;;3.00;2.07;;;;;10.20;101204.00;;;;10499723;28;20193;-79
2023/01/02 11:53:02;;;;;;;3.63;2.10;;;;;10.30;101196.00;;;;10465239;28;20359;-79
2023/01/02 11:58:22;;;;;;;5.83;2.70;;;;;10.50;101194.00;;;;10512901;28;20209;-79
2023/01/02 12:03:26;;;;;;;4.30;2.90;;;;;10.60;101203.00;;;;10482763;28;20767;-79
2023/01/02 12:08:56;;;;;;;5.67;3.30;;;;;10.60;101214.00;;;;10482091;28;20186;-79
2023/01/02 12:14:12;;;;;;;7.67;3.10;;;;;10.60;101217.00;;;;10482407;28;20751;-79
2023/01/02 12:19:33;;;;;;;3.57;2.60;;;;;10.60;101222.00;;;;10482992;28;20686;-79
2023/01/02 12:24:48;;;;;;;5.73;4.20;;;;;10.60;101222.00;;;;10517183;28;20224;-79
2023/01/02 12:30:12;;;;;;;5.37;3.43;;;;;10.70;101225.00;;;;10512120;28;20191;-79
2023/01/02 12:35:34;;;;;;;4.57;3.00;;;;;10.80;101213.00;;;;10509756;28;20556;-79
2023/01/02 12:41:04;;;;;;;9.57;4.37;;;;;10.90;101219.00;;;;10478492;28;20200;-79
2023/01/02 12:46:31;;;;;;;9.67;3.57;;;;;11.00;101211.00;;;;10538858;28;20181;-80
2023/01/02 12:51:59;;;;;;;7.57;4.13;;;;;11.00;101224.00;;;;10496597;28;20726;-79
2023/01/02 12:57:18;;;;;;;6.23;3.17;;;;;11.20;101239.00;;;;10514711;28;20212;-79
2023/01/02 13:03:03;;;;;;;9.60;5.30;;;;;10.80;101246.00;;;;10511547;28;20203;-79
2023/01/02 13:08:16;;;;;;;8.83;5.17;;;;;10.90;101246.00;;;;10499219;28;20216;-80
2023/01/02 13:13:22;;;;;;;9.33;4.10;;;;;10.90;101256.00;;;;10512887;28;20191;-79
2023/01/02 13:18:36;;;;;;;6.03;4.00;;;;;10.90;101264.00;;;;10516205;28;20217;-79
2023/01/02 13:23:59;;;;;;;5.77;4.77;;;;;10.90;101269.00;;;;10515846;28;20233;-79
2023/01/02 13:29:19;;;;;;;5.93;4.10;;;;;10.90;101261.00;;;;10479207;28;20263;-79
2023/01/02 13:34:31;;;;;;;8.33;5.00;;;;;11.10;101268.00;;;;10462718;28;20308;-79
2023/01/02 13:39:39;;;;;;;7.60;4.20;;;;;10.80;101280.00;;;;10555087;28;20269;-79
2023/01/02 13:44:46;;;;;;;6.07;3.20;;;;;10.50;101276.00;;;;10508531;28;20239;-78
2023/01/02 13:49:54;;;;;;;6.10;2.77;;;;;10.00;101300.00;;;;10497622;28;20690;-81
2023/01/02 13:55:11;;;;;;;8.73;3.50;;;;;9.70;101315.00;;;;10519554;28;20181;-81
2023/01/02 14:00:15;;;;;;;5.13;2.30;;;;;9.50;101321.00;;;;10505785;28;20685;-81
2023/01/02 14:05:59;;;;;;;1.93;0.90;;;;;9.20;101322.00;;;;10469330;28;20188;-80
2023/01/02 14:11:06;;;;;;;1.83;0.90;;;;;8.90;101336.00;;;;10467713;28;20804;-80
2023/01/02 14:16:34;;;;;;;0.93;0.90;;;;;8.80;101351.00;;;;10510047;28;20211;-80
2023/01/02 14:21:58;;;;;;;0.60;0.60;;;;;8.80;101347.00;;;;10502933;28;20651;-81
2023/01/02 14:27:18;;;;;;;1.20;1.10;;;;;9.00;101347.00;;;;10473599;28;20236;-80
2023/01/02 14:32:44;;;;;;;1.20;0.93;;;;;9.40;101355.00;;;;10520853;28;20181;-81
2023/01/02 14:37:52;;;;;;;2.83;1.17;;;;;8.90;101361.00;;;;10470951;28;20213;-80
2023/01/02 14:48:50;;;;;;;9.20;6.87;;;;;8.90;101385.00;;;;10509429;28;20200;-80
2023/01/02 14:54:05;;;;;;;3.03;1.97;;;;;8.90;101390.00;;;;10527551;28;20181;-80
2023/01/02 14:59:17;;;;;;;16.33;11.50;;;;;8.70;101398.00;;;;10507193;28;20556;-80
2023/01/02 15:04:40;;;;;;;41.80;27.80;;;;;8.50;101411.00;;;;10508069;28;20193;-80
2023/01/02 15:09:49;;;;;;;70.60;43.33;;;;;8.30;101413.00;;;;10534465;28;20542;-80
2023/01/02 15:14:51;;;;;;;27.33;19.40;;;;;8.20;101423.00;;;;10518848;28;20192;-80
2023/01/02 15:19:53;;;;;;;18.83;12.30;;;;;8.10;101425.00;;;;10512766;28;20279;-80
2023/01/02 15:24:55;;;;;;;9.43;6.37;;;;;8.00;101436.00;;;;10492558;28;20229;-80
2023/01/02 15:30:00;;;;;;;8.90;6.23;;;;;8.00;101447.00;;;;10525226;28;20185;-80
2023/01/02 15:35:09;;;;;;;12.03;6.70;;;;;7.90;101464.00;;;;10544187;28;20218;-80
2023/01/02 15:40:32;;;;;;;9.07;6.83;;;;;7.80;101473.00;;;;10519268;28;20196;-80
2023/01/02 15:45:34;;;;;;;9.63;6.30;;;;;7.80;101471.00;;;;10466214;28;20624;-80
2023/01/02 15:50:37;;;;;;;24.70;15.53;;;;;7.90;101479.00;;;;10504185;28;20678;-80
2023/01/02 15:55:40;;;;;;;8.23;4.90;;;;;7.80;101483.00;;;;10474635;28;20200;-80
2023/01/02 16:00:44;;;;;;;18.43;14.27;;;;;7.80;101493.00;;;;10504420;28;20659;-80
2023/01/02 16:05:56;;;;;;;7.77;5.20;;;;;7.80;101505.00;;;;10476810;28;20225;-80
2023/01/02 16:11:02;;;;;;;13.20;6.50;;;;;7.80;101516.00;;;;10465525;28;20192;-79
2023/01/02 16:16:05;;;;;;;13.73;5.73;;;;;7.80;101514.00;;;;10543019;28;20230;-80
2023/01/02 16:21:18;;;;;;;15.03;8.53;;;;;7.80;101531.00;;;;10483111;28;20272;-79
2023/01/02 16:26:26;;;;;;;10.73;5.17;;;;;7.90;101522.00;;;;10488107;28;20230;-79
2023/01/02 16:31:28;;;;;;;14.17;9.57;;;;;7.90;101543.00;;;;10505845;28;20256;-79
2023/01/02 16:36:30;;;;;;;15.90;8.80;;;;;8.00;101554.00;;;;10489649;28;20211;-79
2023/01/02 16:41:46;;;;;;;11.97;6.47;;;;;8.00;101570.00;;;;10526668;28;20187;-79
2023/01/02 16:46:49;;;;;;;7.07;4.90;;;;;8.00;101567.00;;;;10520777;28;20181;-79
2023/01/02 16:51:53;;;;;;;7.53;2.90;;;;;8.00;101576.00;;;;10517167;28;20192;-80
2023/01/02 16:56:55;;;;;;;4.73;1.67;;;;;7.90;101583.00;;;;10511467;28;20209;-80
2023/01/02 17:01:57;;;;;;;3.67;1.70;;;;;7.80;101595.00;;;;10459952;28;20189;-79
2023/01/02 17:06:59;;;;;;;4.87;1.90;;;;;7.70;101612.00;;;;10489359;28;20544;-79
2023/01/02 17:12:02;;;;;;;2.70;1.50;;;;;7.60;101614.00;;;;10488789;28;20640;-80
2023/01/02 17:17:04;;;;;;;3.73;1.53;;;;;7.50;101623.00;;;;10506531;28;20237;-79
2023/01/02 17:22:05;;;;;;;2.77;1.37;;;;;7.40;101625.00;;;;10479534;28;20181;-79
2023/01/02 17:27:07;;;;;;;2.33;1.33;;;;;7.30;101619.00;;;;10501839;28;20252;-79
2023/01/02 17:32:09;;;;;;;7.07;1.70;;;;;7.30;101624.00;;;;10486948;28;20184;-79
2023/01/02 17:37:11;;;;;;;5.00;1.20;;;;;7.20;101646.00;;;;10504342;28;20217;-79
2023/01/02 17:42:13;;;;;;;3.20;1.23;;;;;7.20;101651.00;;;;10520148;28;20635;-79
2023/01/02 17:47:15;;;;;;;4.60;1.10;;;;;7.10;101660.00;;;;10503619;28;20207;-79
2023/01/02 17:52:37;;;;;;;3.47;1.30;;;;;7.10;101676.00;;;;10478983;28;20213;-79
2023/01/02 17:57:40;;;;;;;3.43;1.40;;;;;7.10;101670.00;;;;10495853;28;20276;-80
2023/01/02 18:02:42;;;;;;;5.40;1.80;;;;;7.00;101677.00;;;;10447345;28;20629;-79
2023/01/02 18:07:44;;;;;;;5.37;2.50;;;;;6.90;101691.00;;;;10461657;28;20284;-79
2023/01/02 18:12:47;;;;;;;4.03;2.00;;;;;6.90;101701.00;;;;10446164;28;20230;-79
2023/01/02 18:17:51;;;;;;;4.07;1.63;;;;;6.90;101711.00;;;;10452762;28;20210;-79
2023/01/02 18:22:53;;;;;;;4.43;1.73;;;;;6.90;101716.00;;;;10461822;28;20201;-79
2023/01/02 18:28:03;;;;;;;6.53;2.27;;;;;6.90;101721.00;;;;10498979;28;20224;-79
2023/01/02 18:33:16;;;;;;;4.70;2.10;;;;;6.90;101730.00;;;;10484191;28;20296;-79
2023/01/02 18:38:25;;;;;;;3.47;2.03;;;;;6.90;101741.00;;;;10520234;28;20228;-79
2023/01/02 18:43:31;;;;;;;5.87;2.30;;;;;6.80;101754.00;;;;10503101;28;20199;-79
2023/01/02 18:48:33;;;;;;;3.00;2.43;;;;;6.80;101765.00;;;;10493497;28;20189;-79
2023/01/02 18:53:43;;;;;;;8.30;3.53;;;;;6.70;101769.00;;;;10480724;28;20218;-79
2023/01/02 18:58:50;;;;;;;6.03;3.30;;;;;6.60;101778.00;;;;10485238;28;20240;-79
2023/01/02 19:04:06;;;;;;;4.03;2.90;;;;;6.60;101772.00;;;;10469802;28;20223;-79
2023/01/02 19:09:37;;;;;;;4.13;2.40;;;;;6.50;101783.00;;;;10513068;28;20197;-78
2023/01/02 19:14:41;;;;;;;4.30;2.97;;;;;6.60;101791.00;;;;10501659;28;20759;-78
2023/01/02 19:19:44;;;;;;;6.40;3.50;;;;;6.50;101801.00;;;;10507820;28;20210;-78
2023/01/02 19:24:46;;;;;;;9.83;3.87;;;;;6.60;101808.00;;;;10490634;28;20239;-79
2023/01/02 19:29:49;;;;;;;10.97;4.23;;;;;6.50;101800.00;;;;10512217;28;20303;-79
2023/01/02 19:34:58;;;;;;;5.43;3.80;;;;;6.40;101818.00;;;;10504258;28;20220;-79
2023/01/02 19:40:06;;;;;;;8.37;3.37;;;;;6.40;101823.00;;;;10486121;28;20738;-79
2023/01/02 19:45:19;;;;;;;3.80;3.10;;;;;6.40;101827.00;;;;10485408;28;20198;-79
2023/01/02 19:50:24;;;;;;;5.93;3.50;;;;;6.30;101848.00;;;;10483531;28;20284;-79
2023/01/02 19:55:26;;;;;;;4.83;2.80;;;;;6.30;101847.00;;;;10483590;28;20286;-79
2023/01/02 20:00:29;;;;;;;8.87;4.27;;;;;6.30;101848.00;;;;10483664;28;20264;-79
2023/01/02 20:05:31;;;;;;;7.40;4.00;;;;;6.30;101851.00;;;;10490379;28;20193;-79
2023/01/02 20:10:33;;;;;;;7.23;3.87;;;;;6.30;101853.00;;;;10486059;28;20189;-79
2023/01/02 20:15:34;;;;;;;6.60;3.27;;;;;6.30;101853.00;;;;10491907;28;20574;-79
2023/01/02 20:20:36;;;;;;;4.87;3.43;;;;;6.40;101863.00;;;;10524081;28;20342;-79
2023/01/02 20:25:39;;;;;;;8.53;4.40;;;;;6.50;101853.00;;;;10491298;28;20710;-79
2023/01/02 20:30:40;;;;;;;7.93;3.43;;;;;6.70;101859.00;;;;10490501;28;20185;-79
2023/01/02 20:35:43;;;;;;;7.57;3.97;;;;;6.90;101856.00;;;;10485634;28;20288;-79
2023/01/02 20:40:46;;;;;;;4.67;3.73;;;;;6.80;101873.00;;;;10482297;28;20194;-79
2023/01/02 20:45:48;;;;;;;10.20;3.37;;;;;6.80;101888.00;;;;10480999;28;20201;-79
2023/01/02 20:50:50;;;;;;;8.07;3.73;;;;;6.70;101893.00;;;;10480874;28;20204;-79
2023/01/02 20:55:52;;;;;;;5.87;3.57;;;;;6.60;101900.00;;;;10483390;28;20706;-79
2023/01/02 21:00:55;;;;;;;10.07;4.43;;;;;6.60;101899.00;;;;10508669;28;20840;-79
2023/01/02 21:05:57;;;;;;;8.53;3.87;;;;;6.50;101911.00;;;;10452073;28;20202;-79
2023/01/02 21:10:59;;;;;;;7.27;3.77;;;;;6.50;101909.00;;;;10481791;28;20189;-79
2023/01/02 21:16:01;;;;;;;12.73;4.37;;;;;6.50;101918.00;;;;10504986;28;20197;-79
2023/01/02 21:21:10;;;;;;;7.17;3.50;;;;;6.40;101921.00;;;;10463806;28;20205;-79
2023/01/02 21:26:13;;;;;;;4.70;3.27;;;;;6.40;101934.00;;;;10464195;28;20267;-79
2023/01/02 21:31:17;;;;;;;6.47;3.57;;;;;6.30;101926.00;;;;10470636;28;20189;-79
2023/01/02 21:36:19;;;;;;;7.67;3.97;;;;;6.20;101942.00;;;;10489213;28;20239;-79
2023/01/02 21:46:41;;;;;;;8.37;3.83;;;;;6.20;101958.00;;;;10496257;28;20571;-79
2023/01/02 21:51:43;;;;;;;8.37;3.90;;;;;6.20;101957.00;;;;10479160;28;20190;-79
2023/01/02 21:56:45;;;;;;;6.10;3.70;;;;;6.10;101947.00;;;;10464924;28;20221;-79
2023/01/02 22:01:47;;;;;;;7.80;3.67;;;;;6.10;101962.00;;;;10479168;28;20194;-79
2023/01/02 22:06:50;;;;;;;8.00;3.60;;;;;6.00;101963.00;;;;10445984;28;20189;-79
2023/01/02 22:12:12;;;;;;;13.20;8.27;;;;;5.80;101971.00;;;;10468183;28;20196;-79
2023/01/02 22:17:16;;;;;;;20.73;13.90;;;;;5.80;101961.00;;;;10500490;28;20219;-79
2023/01/02 22:22:18;;;;;;;9.83;6.57;;;;;5.70;101969.00;;;;10494082;28;20213;-79
2023/01/02 22:27:21;;;;;;;9.30;4.40;;;;;5.70;101971.00;;;;10480221;28;20229;-79
2023/01/02 22:32:23;;;;;;;8.13;3.90;;;;;5.50;101972.00;;;;10504076;28;20202;-79
2023/01/02 22:37:25;;;;;;;4.33;3.07;;;;;5.40;101976.00;;;;10523355;28;20731;-79
2023/01/02 22:48:06;;;;;;;5.77;3.00;;;;;5.00;101998.00;;;;10497818;28;20189;-79
2023/01/02 22:53:30;;;;;;;6.90;3.83;;;;;4.90;102006.00;;;;10451880;28;20288;-79
2023/01/02 22:58:32;;;;;;;8.67;3.17;;;;;4.80;102018.00;;;;10509102;28;20208;-80
2023/01/02 23:03:40;;;;;;;5.30;3.53;;;;;4.60;102014.00;;;;10484640;28;20193;-79
2023/01/02 23:08:42;;;;;;;6.20;3.67;;;;;4.50;102018.00;;;;10494814;28;20543;-79
2023/01/02 23:13:45;;;;;;;7.37;3.63;;;;;4.40;102010.00;;;;10484970;28;20186;-79
2023/01/02 23:19:13;;;;;;;9.87;3.57;;;;;4.40;102018.00;;;;10501692;28;20243;-80
2023/01/02 23:24:21;;;;;;;10.33;3.37;;;;;4.30;102021.00;;;;10469670;28;20219;-79
2023/01/02 23:29:25;;;;;;;6.30;3.27;;;;;4.30;102021.00;;;;10476998;28;20189;-80
2023/01/02 23:34:28;;;;;;;11.20;3.73;;;;;4.30;102025.00;;;;10467599;28;20190;-80
2023/01/02 23:39:31;;;;;;;5.57;3.17;;;;;4.30;102041.00;;;;10481965;28;20557;-80
2023/01/02 23:44:33;;;;;;;11.33;4.17;;;;;4.20;102041.00;;;;10467772;28;20549;-80
2023/01/02 23:49:34;;;;;;;7.10;3.87;;;;;4.20;102043.00;;;;10476143;28;20193;-80
2023/01/02 23:54:36;;;;;;;9.03;4.53;;;;;4.20;102042.00;;;;10481428;28;20189;-79
2023/01/02 23:59:38;;;;;;;7.00;3.83;;;;;4.10;102050.00;;;;10491833;28;20267;-80
